GCWP weather

Gold Coast Water Police Helicopter Landing Site
Gold Coast, Queensland, Australia

Public forecast

Using degrees Celsius for public forecast. Weather courtesy of forecast.io.

METAR (pilot weather report)

Closest report is Gold Coast Airport, 12.4 nm (22.9 km) SSE. Retrieved 2019/04/18 14:30 UTC (0 seconds ago):

YBCG 181430Z AUTO 19009KT 9999 // SCT027 SCT033 SCT040 20/18 Q1023

TAF (pilot weather forecast)

Closest forecast is Gold Coast Airport, 12.4 nm (22.9 km) SSE. Retrieved 2019/04/18 12:00 UTC (2 hours ago):

TAF YBCG 181113Z 1812/1912 16006KT 9999 -SHRA SCT015 SCT025 FM182300 13014KT 9999 -SHRA FEW015 BKN025 INTER 1814/1912 3000 SHRA BKN012